createdAt,value
2018-08-30T00:01:38.890Z,22.90
2018-08-30T00:04:08.334Z,23.30
2018-08-30T00:06:37.796Z,24.10
2018-08-30T00:09:07.738Z,24.53
2018-08-30T00:11:37.197Z,22.53
2018-08-30T00:14:06.641Z,23.00
2018-08-30T00:16:36.084Z,22.93
2018-08-30T00:19:05.533Z,22.73
2018-08-30T00:21:34.966Z,22.87
2018-08-30T00:24:04.535Z,22.13
2018-08-30T00:26:34.124Z,20.67
2018-08-30T00:29:03.622Z,23.13
2018-08-30T00:31:33.038Z,23.27
2018-08-30T00:34:02.517Z,22.27
2018-08-30T00:36:31.916Z,20.60
2018-08-30T00:39:01.369Z,20.27
2018-08-30T00:41:30.830Z,20.63
2018-08-30T00:44:00.216Z,19.87
2018-08-30T00:46:29.699Z,20.17
2018-08-30T00:48:59.152Z,19.90
2018-08-30T00:51:28.576Z,19.50
2018-08-30T00:53:57.982Z,17.57
2018-08-30T00:56:28.488Z,18.83
2018-08-30T00:58:57.989Z,17.30
2018-08-30T01:01:27.415Z,16.20
2018-08-30T01:03:56.891Z,17.07
2018-08-30T01:06:26.597Z,14.63
2018-08-30T01:08:56.032Z,13.40
2018-08-30T01:11:25.446Z,13.53
2018-08-30T01:13:54.847Z,14.27
2018-08-30T01:16:24.280Z,13.53
2018-08-30T01:18:53.756Z,13.53
2018-08-30T01:21:23.251Z,14.50
2018-08-30T01:23:53.208Z,12.13
2018-08-30T01:26:22.676Z,15.60
2018-08-30T01:28:52.095Z,14.03
2018-08-30T01:31:21.559Z,15.23
2018-08-30T01:33:51.029Z,14.77
2018-08-30T01:36:20.408Z,16.53
2018-08-30T01:38:49.798Z,14.40
2018-08-30T01:41:19.312Z,13.73
2018-08-30T01:43:48.731Z,13.13
2018-08-30T01:46:18.274Z,14.80
2018-08-30T01:48:47.637Z,13.90
2018-08-30T01:51:17.058Z,14.40
2018-08-30T01:53:46.500Z,12.40
2018-08-30T01:56:15.905Z,11.50
2018-08-30T01:58:45.361Z,8.80
2018-08-30T02:01:14.727Z,10.67
2018-08-30T02:03:44.135Z,9.17
2018-08-30T02:06:13.605Z,8.60
2018-08-30T02:08:43.037Z,9.27
2018-08-30T02:11:12.468Z,8.17
2018-08-30T02:13:41.844Z,8.83
2018-08-30T02:16:11.242Z,7.10
2018-08-30T02:18:40.663Z,8.20
2018-08-30T02:21:10.056Z,7.10
2018-08-30T02:23:39.547Z,6.93
2018-08-30T02:26:08.952Z,6.73
2018-08-30T02:28:38.405Z,7.27
2018-08-30T02:31:07.874Z,7.40
2018-08-30T02:33:37.347Z,7.60
2018-08-30T02:36:07.021Z,8.17
2018-08-30T02:38:36.455Z,8.10
2018-08-30T02:41:06.169Z,8.10
2018-08-30T02:43:35.643Z,8.63
2018-08-30T02:46:05.112Z,7.90
2018-08-30T02:48:34.598Z,8.00
2018-08-30T02:51:04.036Z,7.93
2018-08-30T02:53:33.544Z,7.10
2018-08-30T02:56:02.978Z,7.53
2018-08-30T02:58:32.369Z,7.37
2018-08-30T03:01:01.856Z,6.90
2018-08-30T03:03:31.331Z,7.83
2018-08-30T03:06:00.814Z,7.60
2018-08-30T03:08:30.277Z,8.43
2018-08-30T03:10:59.707Z,8.00
2018-08-30T03:13:29.257Z,7.17
2018-08-30T03:15:58.679Z,7.00
2018-08-30T03:18:28.215Z,8.80
2018-08-30T03:20:57.691Z,7.30
2018-08-30T03:23:27.132Z,6.40
2018-08-30T03:25:56.556Z,6.37
2018-08-30T03:28:25.975Z,7.43
2018-08-30T03:30:55.444Z,6.23
2018-08-30T03:33:24.767Z,6.30
2018-08-30T03:35:54.149Z,5.50
2018-08-30T03:38:23.621Z,6.20
2018-08-30T03:40:53.029Z,7.47
2018-08-30T03:43:22.466Z,6.57
2018-08-30T03:45:51.878Z,6.80
2018-08-30T03:48:21.303Z,7.13
2018-08-30T03:50:50.731Z,5.73
2018-08-30T03:53:20.146Z,6.17
2018-08-30T03:55:49.491Z,5.50
2018-08-30T03:58:18.859Z,5.80
2018-08-30T04:00:48.342Z,6.20
2018-08-30T04:03:17.743Z,6.30
2018-08-30T04:05:47.184Z,5.63
2018-08-30T04:08:16.583Z,4.70
2018-08-30T04:10:46.163Z,10.80
2018-08-30T04:13:15.597Z,6.30
2018-08-30T04:15:44.988Z,6.33
2018-08-30T04:18:14.445Z,6.33
2018-08-30T04:20:43.848Z,6.50
2018-08-30T04:23:13.265Z,5.70
2018-08-30T04:25:42.726Z,6.30
2018-08-30T04:28:12.128Z,6.50
2018-08-30T04:30:41.588Z,6.77
2018-08-30T04:33:11.248Z,6.67
2018-08-30T04:35:40.681Z,6.40
2018-08-30T04:38:10.116Z,12.77
2018-08-30T04:40:39.562Z,7.40
2018-08-30T04:43:09.068Z,7.20
2018-08-30T04:45:38.472Z,6.93
2018-08-30T04:48:07.876Z,7.20
2018-08-30T04:50:37.388Z,6.97
2018-08-30T04:53:06.791Z,7.03
2018-08-30T04:55:36.176Z,6.80
2018-08-30T04:58:05.854Z,7.20
2018-08-30T05:00:35.229Z,7.43
2018-08-30T05:03:04.669Z,7.47
2018-08-30T05:05:34.087Z,7.10
2018-08-30T05:08:03.514Z,7.10
2018-08-30T05:10:32.959Z,6.87
2018-08-30T05:13:02.369Z,7.40
2018-08-30T05:15:31.801Z,7.57
2018-08-30T05:18:01.294Z,7.93
2018-08-30T05:20:30.713Z,7.63
2018-08-30T05:23:00.200Z,8.27
2018-08-30T05:25:29.664Z,8.43
2018-08-30T05:27:59.084Z,7.20
2018-08-30T05:30:28.515Z,8.03
2018-08-30T05:32:58.032Z,8.90
2018-08-30T05:35:27.467Z,6.73
2018-08-30T05:37:56.920Z,7.23
2018-08-30T05:40:26.301Z,7.37
2018-08-30T05:42:55.711Z,8.20
2018-08-30T05:45:25.093Z,7.90
2018-08-30T05:47:54.486Z,8.33
2018-08-30T05:50:23.947Z,8.47
2018-08-30T05:52:53.404Z,8.67
2018-08-30T05:55:22.885Z,8.50
2018-08-30T05:57:52.341Z,8.87
2018-08-30T06:00:21.789Z,8.57
2018-08-30T06:02:51.190Z,8.07
2018-08-30T06:05:20.651Z,8.50
2018-08-30T06:07:50.060Z,8.10
2018-08-30T06:10:19.533Z,8.90
2018-08-30T06:12:48.985Z,8.60
2018-08-30T06:15:18.418Z,8.80
2018-08-30T06:17:47.965Z,9.57
2018-08-30T06:20:17.412Z,8.90
2018-08-30T06:22:46.901Z,8.73
2018-08-30T06:25:16.393Z,7.50
2018-08-30T06:27:45.833Z,9.27
2018-08-30T06:30:15.281Z,8.83
2018-08-30T06:32:44.772Z,8.47
2018-08-30T06:35:14.641Z,8.50
2018-08-30T06:37:44.085Z,8.57
2018-08-30T06:40:13.509Z,9.47
2018-08-30T06:42:42.940Z,8.67
2018-08-30T06:45:12.353Z,9.23
2018-08-30T06:47:41.851Z,10.20
2018-08-30T06:50:11.271Z,11.00
2018-08-30T06:52:40.635Z,10.80
2018-08-30T06:55:10.070Z,10.87
2018-08-30T06:57:39.494Z,10.10
2018-08-30T07:00:09.011Z,12.87
2018-08-30T07:02:38.461Z,12.77
2018-08-30T07:05:08.003Z,11.07
2018-08-30T07:07:37.434Z,9.57
2018-08-30T07:10:07.539Z,13.50
2018-08-30T07:12:36.977Z,13.47
2018-08-30T07:15:06.789Z,13.67
2018-08-30T07:17:36.157Z,14.00
2018-08-30T07:20:05.690Z,13.00
2018-08-30T07:22:35.202Z,13.03
2018-08-30T07:25:04.673Z,12.30
2018-08-30T07:27:34.095Z,11.87
2018-08-30T07:30:03.552Z,12.50
2018-08-30T07:32:32.958Z,11.63
2018-08-30T07:35:02.471Z,11.33
2018-08-30T07:37:31.766Z,13.20
2018-08-30T07:40:01.192Z,11.63
2018-08-30T07:42:30.825Z,12.13
2018-08-30T07:45:00.228Z,11.97
2018-08-30T07:47:29.704Z,11.30
2018-08-30T07:49:59.164Z,11.23
2018-08-30T07:52:28.626Z,12.07
2018-08-30T07:54:58.000Z,12.33
2018-08-30T07:57:27.432Z,11.77
2018-08-30T07:59:56.931Z,12.30
2018-08-30T08:02:26.343Z,12.70
2018-08-30T08:04:55.772Z,12.43
2018-08-30T08:07:25.240Z,11.60
2018-08-30T08:09:54.717Z,12.80
2018-08-30T08:12:24.157Z,11.07
2018-08-30T08:14:53.632Z,12.40
2018-08-30T08:17:23.121Z,11.97
2018-08-30T08:19:52.588Z,11.27
2018-08-30T08:22:21.987Z,11.53
2018-08-30T08:24:51.500Z,10.90
2018-08-30T08:27:20.873Z,13.67
2018-08-30T08:29:50.269Z,11.73
2018-08-30T08:32:19.686Z,11.73
2018-08-30T08:34:49.112Z,12.10
2018-08-30T08:37:18.537Z,12.43
2018-08-30T08:39:48.004Z,11.40
2018-08-30T08:42:17.453Z,11.63
2018-08-30T08:44:46.864Z,10.73
2018-08-30T08:47:16.537Z,10.90
2018-08-30T08:49:45.977Z,10.30
2018-08-30T08:52:15.447Z,10.57
2018-08-30T08:54:44.886Z,10.60
2018-08-30T08:57:14.302Z,10.97
2018-08-30T08:59:43.757Z,10.77
2018-08-30T09:02:13.194Z,10.50
2018-08-30T09:04:42.620Z,11.10
2018-08-30T09:07:12.205Z,9.57
2018-08-30T09:09:41.485Z,10.40
2018-08-30T09:12:10.886Z,10.57
2018-08-30T09:14:40.362Z,11.77
2018-08-30T09:17:09.812Z,9.23
2018-08-30T09:19:39.368Z,10.60
2018-08-30T09:22:08.789Z,11.50
2018-08-30T09:24:38.239Z,10.33
2018-08-30T09:27:07.691Z,10.13
2018-08-30T09:29:37.124Z,10.43
2018-08-30T09:32:06.879Z,9.60
2018-08-30T09:34:36.384Z,10.40
2018-08-30T09:37:05.929Z,9.30
2018-08-30T09:39:35.383Z,8.97
2018-08-30T09:42:04.873Z,11.80
2018-08-30T09:44:34.292Z,9.50
2018-08-30T09:47:03.753Z,10.93
2018-08-30T09:49:33.198Z,10.40
2018-08-30T09:52:02.703Z,9.50
2018-08-30T09:54:32.152Z,11.30
2018-08-30T09:57:01.763Z,10.63
2018-08-30T09:59:31.111Z,10.60
2018-08-30T10:02:05.711Z,11.07
2018-08-30T10:04:35.118Z,9.83
2018-08-30T10:07:04.582Z,10.20
2018-08-30T10:09:34.049Z,10.50
2018-08-30T10:12:03.582Z,10.87
2018-08-30T10:14:32.978Z,10.07
2018-08-30T10:17:02.460Z,10.67
2018-08-30T10:19:31.884Z,9.97
2018-08-30T10:22:01.328Z,10.00
2018-08-30T10:24:30.753Z,8.63
2018-08-30T10:27:00.272Z,9.67
2018-08-30T10:29:29.701Z,8.50
2018-08-30T10:31:59.195Z,9.10
2018-08-30T10:34:28.619Z,9.97
2018-08-30T10:36:58.079Z,9.77
2018-08-30T10:39:27.455Z,9.67
2018-08-30T10:41:56.873Z,8.50
2018-08-30T10:44:26.278Z,9.47
2018-08-30T10:46:55.658Z,9.73
2018-08-30T10:49:25.221Z,9.30
2018-08-30T10:51:54.671Z,9.50
2018-08-30T10:54:24.070Z,9.07
2018-08-30T10:56:53.466Z,9.10
2018-08-30T10:59:22.890Z,9.90
2018-08-30T11:01:52.401Z,8.67
2018-08-30T11:04:21.957Z,8.60
2018-08-30T11:06:51.482Z,8.50
2018-08-30T11:09:20.974Z,9.07
2018-08-30T11:11:50.389Z,9.90
2018-08-30T11:14:19.929Z,8.13
2018-08-30T11:16:49.398Z,9.37
2018-08-30T11:19:18.882Z,8.97
2018-08-30T11:21:48.361Z,9.20
2018-08-30T11:24:17.794Z,9.40
2018-08-30T11:26:47.206Z,9.37
2018-08-30T11:29:16.623Z,9.30
2018-08-30T11:31:46.139Z,9.17
2018-08-30T11:34:15.555Z,9.07
2018-08-30T11:36:45.004Z,7.50
2018-08-30T11:39:14.430Z,8.70
2018-08-30T11:41:44.040Z,8.47
2018-08-30T11:44:13.485Z,8.93
2018-08-30T11:46:42.940Z,8.30
2018-08-30T11:49:12.369Z,8.70
2018-08-30T11:51:41.876Z,8.53
2018-08-30T11:54:11.299Z,8.00
2018-08-30T11:56:40.698Z,8.40
2018-08-30T11:59:10.195Z,8.93
2018-08-30T12:01:39.749Z,9.00
2018-08-30T12:04:10.377Z,8.27
2018-08-30T12:06:39.898Z,8.67
2018-08-30T12:09:10.406Z,7.70
2018-08-30T12:11:41.269Z,7.80
2018-08-30T12:14:10.821Z,8.30
2018-08-30T12:16:40.220Z,8.40
2018-08-30T12:19:09.771Z,7.83
2018-08-30T12:21:39.196Z,8.10
2018-08-30T12:24:08.632Z,8.30
2018-08-30T12:26:38.080Z,7.60
2018-08-30T12:29:07.614Z,8.63
2018-08-30T12:31:37.113Z,7.73
2018-08-30T12:34:06.817Z,8.23
2018-08-30T12:36:36.152Z,8.10
2018-08-30T12:39:07.984Z,9.00
2018-08-30T12:41:37.472Z,8.70
2018-08-30T12:44:07.156Z,7.70
2018-08-30T12:46:36.724Z,8.47
2018-08-30T12:49:06.392Z,8.97
2018-08-30T12:51:36.070Z,7.83
2018-08-30T12:54:05.624Z,8.77
2018-08-30T12:56:35.138Z,6.47
2018-08-30T12:59:09.833Z,8.33
2018-08-30T13:01:39.268Z,8.50
2018-08-30T13:04:08.841Z,7.10
2018-08-30T13:06:42.371Z,7.60
2018-08-30T13:09:12.079Z,7.67
2018-08-30T13:11:41.198Z,7.87
2018-08-30T13:14:11.135Z,7.23
2018-08-30T13:16:40.613Z,8.07
2018-08-30T13:19:10.245Z,6.70
2018-08-30T13:21:39.673Z,7.30
2018-08-30T13:24:09.094Z,6.63
2018-08-30T13:26:38.607Z,6.50
2018-08-30T13:29:08.640Z,6.07
2018-08-30T13:31:38.174Z,6.67
2018-08-30T13:34:07.609Z,5.53
2018-08-30T13:36:36.905Z,7.03
2018-08-30T13:39:09.901Z,6.80
2018-08-30T13:41:39.558Z,6.53
2018-08-30T13:44:10.493Z,6.43
2018-08-30T13:46:41.083Z,6.37
2018-08-30T13:49:11.455Z,6.43
2018-08-30T13:51:41.062Z,5.93
2018-08-30T13:54:10.303Z,6.53
2018-08-30T13:56:40.040Z,6.10
2018-08-30T13:59:09.442Z,7.00
2018-08-30T14:01:38.913Z,6.50
2018-08-30T14:04:08.276Z,6.37
2018-08-30T14:06:37.560Z,6.80
2018-08-30T14:09:07.575Z,6.20
2018-08-30T14:11:37.069Z,6.57
2018-08-30T14:14:06.541Z,5.70
2018-08-30T14:16:35.679Z,6.43
2018-08-30T14:19:05.733Z,6.40
2018-08-30T14:21:34.991Z,6.80
2018-08-30T14:24:04.401Z,6.37
2018-08-30T14:26:33.942Z,9.40
2018-08-30T14:29:03.223Z,7.30
2018-08-30T14:31:32.628Z,5.83
2018-08-30T14:34:02.096Z,5.93
2018-08-30T14:36:31.540Z,5.67
2018-08-30T14:39:01.127Z,6.70
2018-08-30T14:41:30.498Z,6.70
2018-08-30T14:43:59.882Z,5.30
2018-08-30T14:46:29.308Z,5.50
2018-08-30T14:48:58.720Z,5.40
2018-08-30T14:51:28.367Z,5.20
2018-08-30T14:53:57.871Z,5.20
2018-08-30T14:56:27.332Z,5.80
2018-08-30T14:58:58.791Z,5.57
2018-08-30T15:01:28.681Z,5.63
2018-08-30T15:03:58.174Z,4.80
2018-08-30T15:06:27.589Z,5.10
2018-08-30T15:08:57.045Z,4.27
2018-08-30T15:11:26.575Z,4.80
2018-08-30T15:13:55.957Z,4.27
2018-08-30T15:16:26.453Z,4.77
2018-08-30T15:18:55.888Z,4.60
2018-08-30T15:21:26.351Z,7.57
2018-08-30T15:23:55.805Z,4.00
2018-08-30T15:26:25.358Z,5.10
2018-08-30T15:28:55.345Z,4.00
2018-08-30T15:31:24.784Z,4.33
2018-08-30T15:33:54.278Z,3.90
2018-08-30T15:36:23.629Z,4.10
2018-08-30T15:38:53.084Z,4.00
2018-08-30T15:41:22.548Z,3.60
2018-08-30T15:43:51.988Z,4.30
2018-08-30T15:46:21.448Z,4.23
2018-08-30T15:48:51.508Z,4.40
2018-08-30T15:51:20.812Z,3.83
2018-08-30T15:53:50.308Z,10.40
2018-08-30T15:56:19.795Z,4.00
2018-08-30T15:58:49.374Z,3.87
2018-08-30T16:01:18.827Z,3.23
2018-08-30T16:03:48.359Z,3.20
2018-08-30T16:06:17.841Z,3.47
2018-08-30T16:08:47.290Z,5.00
2018-08-30T16:11:16.877Z,5.40
2018-08-30T16:13:47.640Z,3.20
2018-08-30T16:16:17.669Z,3.30
2018-08-30T16:18:47.268Z,3.80
2018-08-30T16:21:16.856Z,3.10
2018-08-30T16:23:46.443Z,3.47
2018-08-30T16:26:15.881Z,63.07
2018-08-30T16:28:45.336Z,9.80
2018-08-30T16:31:14.897Z,3.43
2018-08-30T16:33:44.290Z,4.17
2018-08-30T16:36:13.740Z,3.70
2018-08-30T16:38:43.227Z,3.97
2018-08-30T16:41:12.847Z,2.80
2018-08-30T16:43:42.249Z,3.40
2018-08-30T16:46:11.657Z,3.37
2018-08-30T16:48:41.281Z,3.33
2018-08-30T16:51:10.875Z,3.37
2018-08-30T16:53:40.234Z,3.53
2018-08-30T16:56:09.623Z,3.40
2018-08-30T16:58:39.087Z,3.50
2018-08-30T17:01:08.560Z,3.77
2018-08-30T17:03:38.608Z,3.20
2018-08-30T17:06:08.543Z,2.73
2018-08-30T17:08:38.217Z,3.30
2018-08-30T17:11:07.576Z,3.30
2018-08-30T17:13:36.984Z,3.97
2018-08-30T17:16:06.449Z,3.70
2018-08-30T17:18:36.037Z,3.67
2018-08-30T17:21:05.546Z,2.60
2018-08-30T17:23:35.176Z,3.20
2018-08-30T17:26:04.664Z,3.07
2018-08-30T17:28:34.149Z,2.60
2018-08-30T17:31:03.760Z,3.80
2018-08-30T17:33:33.241Z,3.57
2018-08-30T17:36:02.715Z,2.73
2018-08-30T17:38:32.167Z,2.73
2018-08-30T17:41:01.636Z,3.37
2018-08-30T17:43:31.125Z,3.03
2018-08-30T17:46:00.559Z,2.63
2018-08-30T17:48:30.095Z,2.97
2018-08-30T17:50:59.652Z,2.57
2018-08-30T17:53:29.172Z,3.07
2018-08-30T17:55:58.752Z,3.37
2018-08-30T17:58:28.137Z,3.00
2018-08-30T18:00:57.627Z,2.87
2018-08-30T18:03:27.133Z,2.33
2018-08-30T18:05:56.533Z,2.90
2018-08-30T18:08:25.972Z,3.13
2018-08-30T18:10:55.625Z,3.90
2018-08-30T18:13:25.121Z,3.67
2018-08-30T18:15:54.514Z,3.70
2018-08-30T18:18:24.043Z,3.43
2018-08-30T18:20:53.411Z,2.67
2018-08-30T18:23:23.073Z,4.27
2018-08-30T18:25:52.513Z,4.27
2018-08-30T18:28:21.950Z,6.60
2018-08-30T18:30:51.865Z,5.20
2018-08-30T18:33:21.822Z,4.63
2018-08-30T18:35:51.436Z,4.50
2018-08-30T18:38:21.075Z,3.13
2018-08-30T18:40:50.622Z,4.10
2018-08-30T18:43:20.068Z,4.60
2018-08-30T18:45:49.941Z,3.17
2018-08-30T18:48:19.548Z,3.17
2018-08-30T18:50:48.975Z,3.30
2018-08-30T18:53:18.400Z,3.30
2018-08-30T18:55:47.971Z,2.87
2018-08-30T18:58:17.481Z,3.00
2018-08-30T19:00:46.884Z,2.93
2018-08-30T19:03:16.419Z,2.83
2018-08-30T19:05:45.772Z,3.17
2018-08-30T19:08:15.633Z,3.93
2018-08-30T19:10:45.000Z,3.33
2018-08-30T19:13:14.472Z,2.87
2018-08-30T19:15:49.012Z,3.43
2018-08-30T19:18:23.730Z,2.70
2018-08-30T19:20:53.187Z,3.20
2018-08-30T19:23:22.610Z,4.03
2018-08-30T19:25:52.071Z,3.00
2018-08-30T19:28:21.468Z,3.73
2018-08-30T19:30:52.355Z,3.73
2018-08-30T19:33:23.736Z,4.00
2018-08-30T19:35:58.709Z,3.13
2018-08-30T19:38:28.666Z,3.50
2018-08-30T19:41:04.466Z,2.90
2018-08-30T19:43:34.405Z,3.13
2018-08-30T19:46:05.159Z,3.77
2018-08-30T19:48:35.867Z,3.70
2018-08-30T19:51:05.612Z,3.43
2018-08-30T19:53:35.067Z,3.63
2018-08-30T19:56:04.598Z,3.60
2018-08-30T19:58:34.035Z,3.93
2018-08-30T20:01:03.453Z,4.03
2018-08-30T20:03:32.868Z,3.03
2018-08-30T20:06:02.286Z,3.80
2018-08-30T20:08:31.762Z,3.50
2018-08-30T20:11:01.348Z,3.90
2018-08-30T20:13:30.933Z,3.40
2018-08-30T20:16:00.375Z,4.70
2018-08-30T20:18:29.841Z,3.10
2018-08-30T20:20:59.279Z,3.70
2018-08-30T20:23:28.865Z,3.60
2018-08-30T20:25:58.335Z,3.37
2018-08-30T20:28:29.941Z,3.53
2018-08-30T20:30:59.366Z,2.83
2018-08-30T20:33:28.915Z,3.90
2018-08-30T20:35:58.387Z,3.30
2018-08-30T20:38:27.832Z,2.73
2018-08-30T20:40:57.400Z,3.83
2018-08-30T20:43:26.794Z,3.60
2018-08-30T20:45:56.283Z,3.40
2018-08-30T20:48:25.769Z,3.40
2018-08-30T20:50:55.200Z,3.80
2018-08-30T20:53:24.782Z,3.37
2018-08-30T20:55:54.246Z,3.40
2018-08-30T20:58:23.660Z,3.30
2018-08-30T21:00:53.593Z,3.07
2018-08-30T21:03:23.548Z,2.97
2018-08-30T21:05:52.901Z,2.70
2018-08-30T21:08:22.403Z,4.30
2018-08-30T21:10:51.792Z,3.10
2018-08-30T21:13:21.203Z,3.73
2018-08-30T21:15:50.621Z,4.13
2018-08-30T21:18:20.500Z,3.33
2018-08-30T21:20:49.925Z,3.30
2018-08-30T21:23:19.311Z,3.10
2018-08-30T21:25:48.730Z,3.20
2018-08-30T21:28:18.190Z,4.60
2018-08-30T21:30:47.701Z,3.50
2018-08-30T21:33:17.121Z,3.37
2018-08-30T21:35:46.643Z,3.57
2018-08-30T21:38:16.244Z,3.77
2018-08-30T21:40:45.700Z,3.67
2018-08-30T21:43:15.107Z,3.00
2018-08-30T21:45:44.564Z,3.83
2018-08-30T21:48:13.966Z,3.30
2018-08-30T21:50:43.885Z,3.37
2018-08-30T21:53:13.278Z,4.77
2018-08-30T21:55:42.667Z,3.47
2018-08-30T21:58:12.111Z,3.90
2018-08-30T22:00:41.772Z,3.43
2018-08-30T22:03:11.253Z,3.27
2018-08-30T22:05:40.695Z,2.77
2018-08-30T22:08:10.111Z,3.57
2018-08-30T22:10:39.548Z,3.83
2018-08-30T22:13:08.901Z,3.30
2018-08-30T22:15:38.450Z,4.33
2018-08-30T22:18:08.363Z,3.20
2018-08-30T22:20:37.752Z,4.00
2018-08-30T22:23:07.298Z,3.93
2018-08-30T22:25:36.711Z,3.40
2018-08-30T22:28:06.526Z,3.10
2018-08-30T22:30:35.876Z,2.77
2018-08-30T22:33:05.413Z,3.40
2018-08-30T22:35:35.324Z,2.87
2018-08-30T22:38:05.287Z,3.40
2018-08-30T22:40:34.692Z,3.60
2018-08-30T22:43:04.115Z,3.60
2018-08-30T22:45:33.521Z,3.37
2018-08-30T22:48:02.907Z,3.30
2018-08-30T22:50:32.354Z,3.30
2018-08-30T22:53:02.297Z,2.73
2018-08-30T22:55:31.786Z,3.07
2018-08-30T22:58:01.153Z,3.13
2018-08-30T23:00:30.616Z,2.87
2018-08-30T23:02:59.979Z,2.90
2018-08-30T23:05:29.389Z,3.07
2018-08-30T23:07:59.291Z,2.97
2018-08-30T23:10:29.284Z,3.20
2018-08-30T23:12:58.887Z,3.13
2018-08-30T23:15:28.423Z,2.70
2018-08-30T23:17:57.839Z,3.23
2018-08-30T23:20:27.371Z,2.80
2018-08-30T23:22:56.848Z,3.03
2018-08-30T23:25:30.459Z,3.20
2018-08-30T23:27:59.993Z,3.20
2018-08-30T23:30:29.409Z,3.10
2018-08-30T23:32:58.811Z,3.40
2018-08-30T23:35:28.723Z,3.00
2018-08-30T23:37:58.172Z,3.37
2018-08-30T23:40:27.600Z,3.10
2018-08-30T23:42:57.047Z,3.30
2018-08-30T23:45:26.472Z,2.93
2018-08-30T23:47:55.839Z,2.87
2018-08-30T23:50:25.323Z,3.10
2018-08-30T23:52:54.910Z,2.93
2018-08-30T23:55:24.390Z,2.93
2018-08-30T23:58:10.593Z,2.90
